Maersk Visby — 9V8827 — position and weather

sailwx.info

Track history (hours):
 
Tides and Currents Weather Stations Pressure Air Temp Water Temp Dewpoint Dewpoint Depression Visibility Wind Speed Wind Dir Waves Ship Positions

Maersk Visby

Last reported at 2015-Mar-27 12:33 UTC. Time now 2015-Mar-27 13:12 UTC.
Position S 30°03' E 031°04'.

Length 180 m; draft 8.6 m.

Type: Ship (hazmat cat D). MMSI: 564979000.

Date/timePositionNaut miles runAvg speedWind from/ knotsBaromVisibWave heightAir tempDewpointWater temp
2015-Mar-27 12:33S 30°03' E 031°04'1111.0
2015-Mar-27 11:33S 29°53' E 031°08'7 6.7
2015-Mar-27 10:33S 29°53' E 031°00'0 0.3
2015-Mar-27 09:32S 29°53' E 031°00'0 0.0
2015-Mar-27 08:32S 29°53' E 031°00'0 0.0
2015-Mar-27 07:26S 29°53' E 031°00'0 0.0
2015-Mar-27 06:20S 29°53' E 031°00'0 0.0
2015-Mar-27 05:14S 29°53' E 031°00'0 0.0
2015-Mar-27 04:14S 29°53' E 031°00'0 0.0
2015-Mar-27 03:32S 29°53' E 031°00'0 0.0
2015-Mar-27 02:20S 29°53' E 031°00'0 0.0
2015-Mar-27 01:26S 29°53' E 031°00'0 0.0
2015-Mar-27 00:32S 29°53' E 031°00'0 0.0
2015-Mar-26 23:32S 29°53' E 031°00'0 0.0
2015-Mar-26 22:32S 29°53' E 031°00'0 0.0
2015-Mar-26 21:26S 29°53' E 031°00'0 0.0
2015-Mar-26 20:32S 29°53' E 031°00'0 0.0
2015-Mar-26 19:32S 29°53' E 031°00'0 0.0
2015-Mar-26 18:32S 29°53' E 031°00'0 0.0
2015-Mar-26 16:14S 29°53' E 031°00'0 0.0
2015-Mar-26 15:32S 29°53' E 031°00'0 0.0
2015-Mar-26 14:32S 29°53' E 031°00'0 0.0
2015-Mar-26 06:20S 29°53' E 031°00'0 0.0
2015-Mar-26 05:14S 29°53' E 031°00'0 0.0
2015-Mar-26 04:32S 29°53' E 031°00'0 0.0
2015-Mar-26 03:26S 29°53' E 031°00'0 0.0
2015-Mar-26 01:32S 29°53' E 031°00'0 0.0
2015-Mar-26 00:32S 29°53' E 031°00'0 0.0
2015-Mar-25 23:32S 29°53' E 031°00'0 0.0
2015-Mar-25 22:32S 29°53' E 031°00'0 0.0
2015-Mar-25 21:32S 29°53' E 031°00'0 0.0
2015-Mar-25 20:32S 29°53' E 031°00'0 0.0
2015-Mar-25 19:32S 29°53' E 031°00'0 0.0
2015-Mar-25 18:32S 29°53' E 031°00'0 0.0
2015-Mar-25 13:26S 29°53' E 031°00'0 0.0
2015-Mar-25 12:32S 29°53' E 031°00'0 0.0
2015-Mar-25 11:32S 29°53' E 031°00'0 0.0
2015-Mar-25 10:32S 29°53' E 031°00'0 0.0
2015-Mar-25 09:32S 29°53' E 031°00'0 0.0
2015-Mar-25 08:32S 29°53' E 031°00'0 0.0
2015-Mar-25 07:32S 29°53' E 031°00'0 0.0
2015-Mar-25 06:26S 29°53' E 031°00'0 0.0
2015-Mar-25 04:26S 29°53' E 031°00'0 0.0
2015-Mar-25 03:32S 29°53' E 031°00'0 0.0
2015-Mar-25 02:32S 29°53' E 031°00'0 0.0
2015-Mar-24 22:32S 29°53' E 031°00'0 0.0
2015-Mar-24 19:32S 29°53' E 031°00'0 0.0
2015-Mar-24 18:26S 29°53' E 031°00'0 0.0
2015-Mar-24 17:32S 29°53' E 031°00'0 0.0
2015-Mar-24 15:08S 29°53' E 031°00'0 0.0
2015-Mar-24 14:32S 29°53' E 031°00'0 0.0
2015-Mar-24 13:26S 29°53' E 031°00'0 0.0
2015-Mar-24 12:33S 29°53' E 031°00'6 5.7
2015-Mar-24 11:33S 29°49' E 031°05'3 3.1
2015-Mar-24 10:33S 29°49' E 031°09'10 9.9
2015-Mar-24 09:33S 29°59' E 031°08'1817.6
2015-Mar-24 08:33S 30°14' E 030°57'18315.0
2015-Mar-23 20:20S 32°36' E 028°42'171 5.0
2015-Mar-22 10:13S 33°55' E 025°41'  
2015-Mar-19 16:05S 34°09' E 025°43'1110.7
2015-Mar-19 15:03S 34°12' E 025°31'710.8
2015-Mar-19 14:25S 34°15' E 025°23'1210.7
2015-Mar-19 13:16S 34°19' E 025°09'910.4
2015-Mar-19 12:27S 34°21' E 024°59'1010.3
2015-Mar-19 11:29S 34°23' E 024°47'  
Track history (hours):
 
Tides and Currents Weather Stations Pressure Air Temp Water Temp Dewpoint Dewpoint Depression Visibility Wind Speed Wind Dir Waves Ship Positions

Maersk Visby

Last reported at 2015-Mar-27 12:33 UTC. Time now 2015-Mar-27 13:12 UTC.
Position S 30°03' E 031°04'.

Length 180 m; draft 8.6 m.

Type: Ship (hazmat cat D). MMSI: 564979000.

Date/timePositionNaut miles runAvg speedWind from/ knotsBaromVisibWave heightAir tempDewpointWater temp
2015-Mar-27 12:33S 30°03' E 031°04'1111.0
2015-Mar-27 11:33S 29°53' E 031°08'7 6.7
2015-Mar-27 10:33S 29°53' E 031°00'0 0.3
2015-Mar-27 09:32S 29°53' E 031°00'0 0.0
2015-Mar-27 08:32S 29°53' E 031°00'0 0.0
2015-Mar-27 07:26S 29°53' E 031°00'0 0.0
2015-Mar-27 06:20S 29°53' E 031°00'0 0.0
2015-Mar-27 05:14S 29°53' E 031°00'0 0.0
2015-Mar-27 04:14S 29°53' E 031°00'0 0.0
2015-Mar-27 03:32S 29°53' E 031°00'0 0.0
2015-Mar-27 02:20S 29°53' E 031°00'0 0.0
2015-Mar-27 01:26S 29°53' E 031°00'0 0.0
2015-Mar-27 00:32S 29°53' E 031°00'0 0.0
2015-Mar-26 23:32S 29°53' E 031°00'0 0.0
2015-Mar-26 22:32S 29°53' E 031°00'0 0.0
2015-Mar-26 21:26S 29°53' E 031°00'0 0.0
2015-Mar-26 20:32S 29°53' E 031°00'0 0.0
2015-Mar-26 19:32S 29°53' E 031°00'0 0.0
2015-Mar-26 18:32S 29°53' E 031°00'0 0.0
2015-Mar-26 16:14S 29°53' E 031°00'0 0.0
2015-Mar-26 15:32S 29°53' E 031°00'0 0.0
2015-Mar-26 14:32S 29°53' E 031°00'0 0.0
2015-Mar-26 06:20S 29°53' E 031°00'0 0.0
2015-Mar-26 05:14S 29°53' E 031°00'0 0.0
2015-Mar-26 04:32S 29°53' E 031°00'0 0.0
2015-Mar-26 03:26S 29°53' E 031°00'0 0.0
2015-Mar-26 01:32S 29°53' E 031°00'0 0.0
2015-Mar-26 00:32S 29°53' E 031°00'0 0.0
2015-Mar-25 23:32S 29°53' E 031°00'0 0.0
2015-Mar-25 22:32S 29°53' E 031°00'0 0.0
2015-Mar-25 21:32S 29°53' E 031°00'0 0.0
2015-Mar-25 20:32S 29°53' E 031°00'0 0.0
2015-Mar-25 19:32S 29°53' E 031°00'0 0.0
2015-Mar-25 18:32S 29°53' E 031°00'0 0.0
2015-Mar-25 13:26S 29°53' E 031°00'0 0.0
2015-Mar-25 12:32S 29°53' E 031°00'0 0.0
2015-Mar-25 11:32S 29°53' E 031°00'0 0.0
2015-Mar-25 10:32S 29°53' E 031°00'0 0.0
2015-Mar-25 09:32S 29°53' E 031°00'0 0.0
2015-Mar-25 08:32S 29°53' E 031°00'0 0.0
2015-Mar-25 07:32S 29°53' E 031°00'0 0.0
2015-Mar-25 06:26S 29°53' E 031°00'0 0.0
2015-Mar-25 04:26S 29°53' E 031°00'0 0.0
2015-Mar-25 03:32S 29°53' E 031°00'0 0.0
2015-Mar-25 02:32S 29°53' E 031°00'0 0.0
2015-Mar-24 22:32S 29°53' E 031°00'0 0.0
2015-Mar-24 19:32S 29°53' E 031°00'0 0.0
2015-Mar-24 18:26S 29°53' E 031°00'0 0.0
2015-Mar-24 17:32S 29°53' E 031°00'0 0.0
2015-Mar-24 15:08S 29°53' E 031°00'0 0.0
2015-Mar-24 14:32S 29°53' E 031°00'0 0.0
2015-Mar-24 13:26S 29°53' E 031°00'0 0.0
2015-Mar-24 12:33S 29°53' E 031°00'6 5.7
2015-Mar-24 11:33S 29°49' E 031°05'3 3.1
2015-Mar-24 10:33S 29°49' E 031°09'10 9.9
2015-Mar-24 09:33S 29°59' E 031°08'1817.6
2015-Mar-24 08:33S 30°14' E 030°57'18315.0
2015-Mar-23 20:20S 32°36' E 028°42'171 5.0
2015-Mar-22 10:13S 33°55' E 025°41'  
2015-Mar-19 16:05S 34°09' E 025°43'1110.7
2015-Mar-19 15:03S 34°12' E 025°31'710.8
2015-Mar-19 14:25S 34°15' E 025°23'1210.7
2015-Mar-19 13:16S 34°19' E 025°09'910.4
2015-Mar-19 12:27S 34°21' E 024°59'1010.3
2015-Mar-19 11:29S 34°23' E 024°47'  

Dump ship's entire track history